sensor_id;sensor_type;location;lat;lon;timestamp;P1;durP1;ratioP1;P2;durP2;ratioP2
15982;SDS011;14442;50.196;8.096;2022-10-16T00:00:44;6.00;;;4.60;;
15982;SDS011;14442;50.196;8.096;2022-10-16T00:03:11;5.10;;;3.60;;
15982;SDS011;14442;50.196;8.096;2022-10-16T00:05:38;5.10;;;3.57;;
15982;SDS011;14442;50.196;8.096;2022-10-16T00:08:06;5.27;;;3.40;;
15982;SDS011;14442;50.196;8.096;2022-10-16T00:10:34;6.60;;;4.10;;
15982;SDS011;14442;50.196;8.096;2022-10-16T00:13:02;7.63;;;3.93;;
15982;SDS011;14442;50.196;8.096;2022-10-16T00:15:29;6.13;;;3.30;;
15982;SDS011;14442;50.196;8.096;2022-10-16T00:17:56;4.00;;;3.27;;
15982;SDS011;14442;50.196;8.096;2022-10-16T00:20:23;5.37;;;3.13;;
15982;SDS011;14442;50.196;8.096;2022-10-16T00:22:49;5.50;;;3.53;;
15982;SDS011;14442;50.196;8.096;2022-10-16T00:25:16;3.37;;;2.67;;
15982;SDS011;14442;50.196;8.096;2022-10-16T00:27:43;4.30;;;2.97;;
15982;SDS011;14442;50.196;8.096;2022-10-16T00:30:11;5.13;;;3.17;;
15982;SDS011;14442;50.196;8.096;2022-10-16T00:32:38;3.43;;;2.93;;
15982;SDS011;14442;50.196;8.096;2022-10-16T00:35:05;4.50;;;2.47;;
15982;SDS011;14442;50.196;8.096;2022-10-16T00:37:32;4.27;;;2.43;;
15982;SDS011;14442;50.196;8.096;2022-10-16T00:39:58;5.23;;;2.80;;
15982;SDS011;14442;50.196;8.096;2022-10-16T00:42:25;3.83;;;2.77;;
15982;SDS011;14442;50.196;8.096;2022-10-16T00:44:53;6.53;;;3.17;;
15982;SDS011;14442;50.196;8.096;2022-10-16T00:47:24;3.87;;;2.77;;
15982;SDS011;14442;50.196;8.096;2022-10-16T00:49:56;4.73;;;2.87;;
15982;SDS011;14442;50.196;8.096;2022-10-16T00:52:26;4.83;;;3.10;;
15982;SDS011;14442;50.196;8.096;2022-10-16T00:54:53;3.20;;;2.47;;
15982;SDS011;14442;50.196;8.096;2022-10-16T00:57:21;5.50;;;2.63;;
15982;SDS011;14442;50.196;8.096;2022-10-16T00:59:48;5.23;;;2.77;;
15982;SDS011;14442;50.196;8.096;2022-10-16T01:02:15;3.93;;;2.60;;
15982;SDS011;14442;50.196;8.096;2022-10-16T01:04:45;2.73;;;2.43;;
15982;SDS011;14442;50.196;8.096;2022-10-16T01:07:16;3.30;;;2.73;;
15982;SDS011;14442;50.196;8.096;2022-10-16T01:09:54;5.63;;;2.30;;
15982;SDS011;14442;50.196;8.096;2022-10-16T01:12:32;4.97;;;2.50;;
15982;SDS011;14442;50.196;8.096;2022-10-16T01:15:06;3.70;;;2.80;;
15982;SDS011;14442;50.196;8.096;2022-10-16T01:17:38;4.37;;;2.73;;
15982;SDS011;14442;50.196;8.096;2022-10-16T01:20:11;3.90;;;2.37;;
15982;SDS011;14442;50.196;8.096;2022-10-16T01:22:54;4.13;;;2.13;;
15982;SDS011;14442;50.196;8.096;2022-10-16T01:25:31;3.50;;;2.00;;
15982;SDS011;14442;50.196;8.096;2022-10-16T01:28:11;3.20;;;1.97;;
15982;SDS011;14442;50.196;8.096;2022-10-16T01:30:40;2.70;;;2.10;;
15982;SDS011;14442;50.196;8.096;2022-10-16T01:33:12;3.40;;;1.97;;
15982;SDS011;14442;50.196;8.096;2022-10-16T01:35:43;2.57;;;2.03;;
15982;SDS011;14442;50.196;8.096;2022-10-16T01:38:14;3.50;;;1.80;;
15982;SDS011;14442;50.196;8.096;2022-10-16T01:40:46;3.90;;;1.93;;
15982;SDS011;14442;50.196;8.096;2022-10-16T01:43:19;3.93;;;2.30;;
15982;SDS011;14442;50.196;8.096;2022-10-16T01:45:48;4.10;;;2.00;;
15982;SDS011;14442;50.196;8.096;2022-10-16T01:48:17;3.50;;;2.07;;
15982;SDS011;14442;50.196;8.096;2022-10-16T01:50:48;3.30;;;2.10;;
15982;SDS011;14442;50.196;8.096;2022-10-16T01:53:20;3.03;;;1.97;;
15982;SDS011;14442;50.196;8.096;2022-10-16T01:55:47;3.93;;;2.23;;
15982;SDS011;14442;50.196;8.096;2022-10-16T01:58:16;3.37;;;1.70;;
15982;SDS011;14442;50.196;8.096;2022-10-16T02:00:44;1.97;;;1.77;;
15982;SDS011;14442;50.196;8.096;2022-10-16T02:03:12;2.37;;;1.73;;
15982;SDS011;14442;50.196;8.096;2022-10-16T02:05:45;2.63;;;2.00;;
15982;SDS011;14442;50.196;8.096;2022-10-16T02:08:14;1.57;;;1.47;;
15982;SDS011;14442;50.196;8.096;2022-10-16T02:10:41;1.83;;;1.33;;
15982;SDS011;14442;50.196;8.096;2022-10-16T02:13:10;2.40;;;1.80;;
15982;SDS011;14442;50.196;8.096;2022-10-16T02:15:42;2.23;;;1.73;;
15982;SDS011;14442;50.196;8.096;2022-10-16T02:18:08;1.83;;;1.53;;
15982;SDS011;14442;50.196;8.096;2022-10-16T02:20:36;3.07;;;1.83;;
15982;SDS011;14442;50.196;8.096;2022-10-16T02:23:09;2.03;;;1.70;;
15982;SDS011;14442;50.196;8.096;2022-10-16T02:25:44;3.20;;;1.60;;
15982;SDS011;14442;50.196;8.096;2022-10-16T02:28:13;1.87;;;1.50;;
15982;SDS011;14442;50.196;8.096;2022-10-16T02:30:47;3.23;;;1.80;;
15982;SDS011;14442;50.196;8.096;2022-10-16T02:33:17;1.23;;;1.13;;
15982;SDS011;14442;50.196;8.096;2022-10-16T02:35:47;3.83;;;1.30;;
15982;SDS011;14442;50.196;8.096;2022-10-16T02:38:16;1.30;;;1.20;;
15982;SDS011;14442;50.196;8.096;2022-10-16T02:40:44;2.13;;;1.43;;
15982;SDS011;14442;50.196;8.096;2022-10-16T02:43:11;1.57;;;1.47;;
15982;SDS011;14442;50.196;8.096;2022-10-16T02:45:39;1.97;;;1.20;;
15982;SDS011;14442;50.196;8.096;2022-10-16T02:48:07;1.90;;;1.40;;
15982;SDS011;14442;50.196;8.096;2022-10-16T02:50:33;1.70;;;1.40;;
15982;SDS011;14442;50.196;8.096;2022-10-16T02:53:00;1.73;;;1.00;;
15982;SDS011;14442;50.196;8.096;2022-10-16T02:55:27;1.77;;;1.20;;
15982;SDS011;14442;50.196;8.096;2022-10-16T02:57:54;2.37;;;1.33;;
15982;SDS011;14442;50.196;8.096;2022-10-16T03:00:21;1.20;;;1.07;;
15982;SDS011;14442;50.196;8.096;2022-10-16T03:02:47;1.40;;;1.10;;
15982;SDS011;14442;50.196;8.096;2022-10-16T03:05:16;2.10;;;1.37;;
15982;SDS011;14442;50.196;8.096;2022-10-16T03:07:43;1.70;;;1.37;;
15982;SDS011;14442;50.196;8.096;2022-10-16T03:10:09;2.80;;;1.00;;
15982;SDS011;14442;50.196;8.096;2022-10-16T03:12:36;1.00;;;1.00;;
15982;SDS011;14442;50.196;8.096;2022-10-16T03:15:03;2.50;;;1.23;;
15982;SDS011;14442;50.196;8.096;2022-10-16T03:17:32;3.10;;;1.17;;
15982;SDS011;14442;50.196;8.096;2022-10-16T03:19:59;2.73;;;1.30;;
15982;SDS011;14442;50.196;8.096;2022-10-16T03:22:27;1.67;;;1.13;;
15982;SDS011;14442;50.196;8.096;2022-10-16T03:24:54;1.00;;;1.00;;
15982;SDS011;14442;50.196;8.096;2022-10-16T03:27:21;0.80;;;0.80;;
15982;SDS011;14442;50.196;8.096;2022-10-16T03:29:47;2.03;;;1.10;;
15982;SDS011;14442;50.196;8.096;2022-10-16T03:32:14;1.60;;;1.00;;
15982;SDS011;14442;50.196;8.096;2022-10-16T03:34:41;1.77;;;0.93;;
15982;SDS011;14442;50.196;8.096;2022-10-16T03:37:07;2.07;;;1.23;;
15982;SDS011;14442;50.196;8.096;2022-10-16T03:39:35;0.80;;;0.80;;
15982;SDS011;14442;50.196;8.096;2022-10-16T03:42:02;4.87;;;0.90;;
15982;SDS011;14442;50.196;8.096;2022-10-16T03:44:29;1.47;;;1.00;;
15982;SDS011;14442;50.196;8.096;2022-10-16T03:46:55;0.90;;;0.90;;
15982;SDS011;14442;50.196;8.096;2022-10-16T03:49:22;0.80;;;0.80;;
15982;SDS011;14442;50.196;8.096;2022-10-16T03:51:49;1.60;;;0.97;;
15982;SDS011;14442;50.196;8.096;2022-10-16T03:54:15;3.30;;;1.40;;
15982;SDS011;14442;50.196;8.096;2022-10-16T03:56:43;1.53;;;1.00;;
15982;SDS011;14442;50.196;8.096;2022-10-16T03:59:10;0.83;;;0.83;;
15982;SDS011;14442;50.196;8.096;2022-10-16T04:01:37;1.17;;;0.77;;
15982;SDS011;14442;50.196;8.096;2022-10-16T04:04:03;1.40;;;0.93;;
15982;SDS011;14442;50.196;8.096;2022-10-16T04:06:30;1.20;;;0.93;;
15982;SDS011;14442;50.196;8.096;2022-10-16T04:08:57;2.07;;;1.00;;
15982;SDS011;14442;50.196;8.096;2022-10-16T04:11:23;0.83;;;0.70;;
15982;SDS011;14442;50.196;8.096;2022-10-16T04:13:51;0.73;;;0.73;;
15982;SDS011;14442;50.196;8.096;2022-10-16T04:16:18;0.93;;;0.70;;
15982;SDS011;14442;50.196;8.096;2022-10-16T04:18:45;0.70;;;0.70;;
15982;SDS011;14442;50.196;8.096;2022-10-16T04:21:12;0.80;;;0.80;;
15982;SDS011;14442;50.196;8.096;2022-10-16T04:23:38;0.80;;;0.70;;
15982;SDS011;14442;50.196;8.096;2022-10-16T04:26:05;1.10;;;0.70;;
15982;SDS011;14442;50.196;8.096;2022-10-16T04:28:31;0.80;;;0.80;;
15982;SDS011;14442;50.196;8.096;2022-10-16T04:30:59;1.07;;;0.97;;
15982;SDS011;14442;50.196;8.096;2022-10-16T04:33:29;1.07;;;0.83;;
15982;SDS011;14442;50.196;8.096;2022-10-16T04:35:56;0.77;;;0.60;;
15982;SDS011;14442;50.196;8.096;2022-10-16T04:38:23;0.83;;;0.60;;
15982;SDS011;14442;50.196;8.096;2022-10-16T04:40:50;1.43;;;0.60;;
15982;SDS011;14442;50.196;8.096;2022-10-16T04:43:17;0.77;;;0.60;;
15982;SDS011;14442;50.196;8.096;2022-10-16T04:45:43;0.50;;;0.50;;
15982;SDS011;14442;50.196;8.096;2022-10-16T04:48:11;0.80;;;0.80;;
15982;SDS011;14442;50.196;8.096;2022-10-16T04:50:38;1.47;;;0.53;;
15982;SDS011;14442;50.196;8.096;2022-10-16T04:53:05;0.53;;;0.47;;
15982;SDS011;14442;50.196;8.096;2022-10-16T04:55:32;1.53;;;0.90;;
15982;SDS011;14442;50.196;8.096;2022-10-16T04:57:58;0.90;;;0.67;;
15982;SDS011;14442;50.196;8.096;2022-10-16T05:00:25;0.77;;;0.73;;
15982;SDS011;14442;50.196;8.096;2022-10-16T05:02:52;0.60;;;0.60;;
15982;SDS011;14442;50.196;8.096;2022-10-16T05:05:20;2.97;;;0.53;;
15982;SDS011;14442;50.196;8.096;2022-10-16T05:07:48;2.97;;;0.77;;
15982;SDS011;14442;50.196;8.096;2022-10-16T05:10:15;0.60;;;0.60;;
15982;SDS011;14442;50.196;8.096;2022-10-16T05:12:42;2.00;;;0.50;;
15982;SDS011;14442;50.196;8.096;2022-10-16T05:15:09;1.20;;;0.70;;
15982;SDS011;14442;50.196;8.096;2022-10-16T05:17:36;1.03;;;0.50;;
15982;SDS011;14442;50.196;8.096;2022-10-16T05:20:03;1.10;;;0.47;;
15982;SDS011;14442;50.196;8.096;2022-10-16T05:22:32;0.87;;;0.50;;
15982;SDS011;14442;50.196;8.096;2022-10-16T05:24:59;1.20;;;0.60;;
15982;SDS011;14442;50.196;8.096;2022-10-16T05:27:25;1.30;;;0.50;;
15982;SDS011;14442;50.196;8.096;2022-10-16T05:29:52;0.80;;;0.60;;
15982;SDS011;14442;50.196;8.096;2022-10-16T05:32:19;0.90;;;0.73;;
15982;SDS011;14442;50.196;8.096;2022-10-16T05:34:45;0.60;;;0.47;;
15982;SDS011;14442;50.196;8.096;2022-10-16T05:37:12;0.40;;;0.40;;
15982;SDS011;14442;50.196;8.096;2022-10-16T05:39:40;0.70;;;0.70;;
15982;SDS011;14442;50.196;8.096;2022-10-16T05:42:07;0.60;;;0.50;;
15982;SDS011;14442;50.196;8.096;2022-10-16T05:44:34;0.90;;;0.50;;
15982;SDS011;14442;50.196;8.096;2022-10-16T05:47:00;1.47;;;0.40;;
15982;SDS011;14442;50.196;8.096;2022-10-16T05:49:27;0.40;;;0.40;;
15982;SDS011;14442;50.196;8.096;2022-10-16T05:51:54;0.37;;;0.37;;
15982;SDS011;14442;50.196;8.096;2022-10-16T05:54:20;0.37;;;0.37;;
15982;SDS011;14442;50.196;8.096;2022-10-16T05:56:48;0.40;;;0.40;;
15982;SDS011;14442;50.196;8.096;2022-10-16T05:59:15;0.40;;;0.40;;
15982;SDS011;14442;50.196;8.096;2022-10-16T06:01:41;1.67;;;0.63;;
15982;SDS011;14442;50.196;8.096;2022-10-16T06:04:08;0.77;;;0.40;;
15982;SDS011;14442;50.196;8.096;2022-10-16T06:06:35;0.40;;;0.40;;
15982;SDS011;14442;50.196;8.096;2022-10-16T06:09:02;0.63;;;0.43;;
15982;SDS011;14442;50.196;8.096;2022-10-16T06:11:30;0.50;;;0.50;;
15982;SDS011;14442;50.196;8.096;2022-10-16T06:14:00;0.30;;;0.30;;
15982;SDS011;14442;50.196;8.096;2022-10-16T06:16:31;0.50;;;0.40;;
15982;SDS011;14442;50.196;8.096;2022-10-16T06:18:59;0.40;;;0.40;;
15982;SDS011;14442;50.196;8.096;2022-10-16T06:21:26;0.57;;;0.50;;
15982;SDS011;14442;50.196;8.096;2022-10-16T06:23:54;0.73;;;0.60;;
15982;SDS011;14442;50.196;8.096;2022-10-16T06:26:23;0.53;;;0.50;;
15982;SDS011;14442;50.196;8.096;2022-10-16T06:28:51;0.37;;;0.37;;
15982;SDS011;14442;50.196;8.096;2022-10-16T06:31:19;0.90;;;0.50;;
15982;SDS011;14442;50.196;8.096;2022-10-16T06:33:49;1.03;;;0.50;;
15982;SDS011;14442;50.196;8.096;2022-10-16T06:36:17;0.40;;;0.40;;
15982;SDS011;14442;50.196;8.096;2022-10-16T06:38:44;1.07;;;0.30;;
15982;SDS011;14442;50.196;8.096;2022-10-16T06:41:11;0.50;;;0.50;;
15982;SDS011;14442;50.196;8.096;2022-10-16T06:43:41;0.43;;;0.30;;
15982;SDS011;14442;50.196;8.096;2022-10-16T06:46:09;0.50;;;0.37;;
15982;SDS011;14442;50.196;8.096;2022-10-16T06:48:38;0.40;;;0.30;;
15982;SDS011;14442;50.196;8.096;2022-10-16T06:51:06;0.20;;;0.20;;
15982;SDS011;14442;50.196;8.096;2022-10-16T06:53:36;0.40;;;0.40;;
15982;SDS011;14442;50.196;8.096;2022-10-16T06:56:07;0.40;;;0.40;;
15982;SDS011;14442;50.196;8.096;2022-10-16T06:58:35;0.67;;;0.40;;
15982;SDS011;14442;50.196;8.096;2022-10-16T07:01:01;0.70;;;0.50;;
15982;SDS011;14442;50.196;8.096;2022-10-16T07:03:28;0.40;;;0.40;;
15982;SDS011;14442;50.196;8.096;2022-10-16T07:05:56;0.40;;;0.40;;
15982;SDS011;14442;50.196;8.096;2022-10-16T07:08:27;0.40;;;0.40;;
15982;SDS011;14442;50.196;8.096;2022-10-16T07:10:57;0.30;;;0.30;;
15982;SDS011;14442;50.196;8.096;2022-10-16T07:13:25;0.30;;;0.30;;
15982;SDS011;14442;50.196;8.096;2022-10-16T07:15:52;0.37;;;0.37;;
15982;SDS011;14442;50.196;8.096;2022-10-16T07:18:18;0.70;;;0.50;;
15982;SDS011;14442;50.196;8.096;2022-10-16T07:20:45;0.30;;;0.27;;
15982;SDS011;14442;50.196;8.096;2022-10-16T07:23:13;0.50;;;0.50;;
15982;SDS011;14442;50.196;8.096;2022-10-16T07:25:40;1.00;;;0.53;;
15982;SDS011;14442;50.196;8.096;2022-10-16T07:28:06;0.63;;;0.40;;
15982;SDS011;14442;50.196;8.096;2022-10-16T07:30:34;1.27;;;0.70;;
15982;SDS011;14442;50.196;8.096;2022-10-16T07:33:02;0.30;;;0.30;;
15982;SDS011;14442;50.196;8.096;2022-10-16T07:35:28;0.57;;;0.43;;
15982;SDS011;14442;50.196;8.096;2022-10-16T07:37:55;0.30;;;0.30;;
15982;SDS011;14442;50.196;8.096;2022-10-16T07:40:23;0.53;;;0.20;;
15982;SDS011;14442;50.196;8.096;2022-10-16T07:42:52;0.50;;;0.33;;
15982;SDS011;14442;50.196;8.096;2022-10-16T07:45:18;0.57;;;0.47;;
15982;SDS011;14442;50.196;8.096;2022-10-16T07:47:45;0.40;;;0.40;;
15982;SDS011;14442;50.196;8.096;2022-10-16T07:50:11;0.27;;;0.27;;
15982;SDS011;14442;50.196;8.096;2022-10-16T07:52:38;0.37;;;0.37;;
15982;SDS011;14442;50.196;8.096;2022-10-16T07:55:05;0.40;;;0.37;;
15982;SDS011;14442;50.196;8.096;2022-10-16T07:57:34;0.30;;;0.30;;
15982;SDS011;14442;50.196;8.096;2022-10-16T08:00:00;0.43;;;0.40;;
15982;SDS011;14442;50.196;8.096;2022-10-16T08:02:27;0.40;;;0.40;;
15982;SDS011;14442;50.196;8.096;2022-10-16T08:04:54;0.97;;;0.47;;
15982;SDS011;14442;50.196;8.096;2022-10-16T08:07:20;2.03;;;0.37;;
15982;SDS011;14442;50.196;8.096;2022-10-16T08:09:48;0.40;;;0.40;;
15982;SDS011;14442;50.196;8.096;2022-10-16T08:12:16;0.40;;;0.40;;
15982;SDS011;14442;50.196;8.096;2022-10-16T08:14:44;0.40;;;0.40;;
15982;SDS011;14442;50.196;8.096;2022-10-16T08:17:13;0.30;;;0.30;;
15982;SDS011;14442;50.196;8.096;2022-10-16T08:19:40;0.47;;;0.30;;
15982;SDS011;14442;50.196;8.096;2022-10-16T08:22:10;1.27;;;0.57;;
15982;SDS011;14442;50.196;8.096;2022-10-16T08:24:37;0.63;;;0.40;;
15982;SDS011;14442;50.196;8.096;2022-10-16T08:27:03;8.20;;;0.60;;
15982;SDS011;14442;50.196;8.096;2022-10-16T08:29:30;2.10;;;0.80;;
15982;SDS011;14442;50.196;8.096;2022-10-16T08:31:58;3.20;;;0.50;;
15982;SDS011;14442;50.196;8.096;2022-10-16T08:34:25;1.60;;;0.40;;
15982;SDS011;14442;50.196;8.096;2022-10-16T08:36:52;3.03;;;0.60;;
15982;SDS011;14442;50.196;8.096;2022-10-16T08:39:19;2.30;;;0.50;;
15982;SDS011;14442;50.196;8.096;2022-10-16T08:47:39;2.93;;;0.70;;
15982;SDS011;14442;50.196;8.096;2022-10-16T08:50:17;1.50;;;0.70;;
15982;SDS011;14442;50.196;8.096;2022-10-16T08:52:47;1.37;;;0.40;;
15982;SDS011;14442;50.196;8.096;2022-10-16T08:55:19;2.23;;;0.40;;
15982;SDS011;14442;50.196;8.096;2022-10-16T08:57:57;2.00;;;0.40;;
15982;SDS011;14442;50.196;8.096;2022-10-16T09:00:24;1.63;;;0.60;;
15982;SDS011;14442;50.196;8.096;2022-10-16T09:02:54;2.00;;;0.60;;
15982;SDS011;14442;50.196;8.096;2022-10-16T09:05:36;1.20;;;0.60;;
15982;SDS011;14442;50.196;8.096;2022-10-16T09:08:25;9.37;;;4.23;;
15982;SDS011;14442;50.196;8.096;2022-10-16T09:11:02;6.17;;;2.97;;
15982;SDS011;14442;50.196;8.096;2022-10-16T09:13:36;6.37;;;2.43;;
15982;SDS011;14442;50.196;8.096;2022-10-16T09:16:14;6.53;;;2.17;;
15982;SDS011;14442;50.196;8.096;2022-10-16T09:18:48;5.97;;;2.47;;
15982;SDS011;14442;50.196;8.096;2022-10-16T09:21:21;5.33;;;2.10;;
15982;SDS011;14442;50.196;8.096;2022-10-16T09:23:51;5.30;;;1.90;;
15982;SDS011;14442;50.196;8.096;2022-10-16T09:26:20;4.20;;;2.00;;
15982;SDS011;14442;50.196;8.096;2022-10-16T09:28:47;6.93;;;1.73;;
15982;SDS011;14442;50.196;8.096;2022-10-16T09:31:15;12.30;;;2.40;;
15982;SDS011;14442;50.196;8.096;2022-10-16T09:33:47;5.50;;;2.00;;
15982;SDS011;14442;50.196;8.096;2022-10-16T09:36:16;8.70;;;1.83;;
15982;SDS011;14442;50.196;8.096;2022-10-16T09:38:43;9.73;;;2.07;;
15982;SDS011;14442;50.196;8.096;2022-10-16T09:41:13;9.20;;;1.60;;
15982;SDS011;14442;50.196;8.096;2022-10-16T09:43:46;4.97;;;1.27;;
15982;SDS011;14442;50.196;8.096;2022-10-16T09:46:24;7.50;;;1.23;;
15982;SDS011;14442;50.196;8.096;2022-10-16T09:48:54;9.40;;;1.90;;
15982;SDS011;14442;50.196;8.096;2022-10-16T09:51:24;9.73;;;1.20;;
15982;SDS011;14442;50.196;8.096;2022-10-16T09:53:54;5.90;;;1.43;;
15982;SDS011;14442;50.196;8.096;2022-10-16T09:56:23;4.43;;;1.33;;
15982;SDS011;14442;50.196;8.096;2022-10-16T09:58:52;5.60;;;1.17;;
15982;SDS011;14442;50.196;8.096;2022-10-16T10:01:20;4.37;;;1.33;;
15982;SDS011;14442;50.196;8.096;2022-10-16T10:03:50;3.50;;;1.60;;
15982;SDS011;14442;50.196;8.096;2022-10-16T10:06:20;5.47;;;1.40;;
15982;SDS011;14442;50.196;8.096;2022-10-16T10:08:53;6.43;;;1.33;;
15982;SDS011;14442;50.196;8.096;2022-10-16T10:11:40;4.50;;;1.03;;
15982;SDS011;14442;50.196;8.096;2022-10-16T10:14:14;3.80;;;1.17;;
15982;SDS011;14442;50.196;8.096;2022-10-16T10:16:44;3.23;;;1.30;;
15982;SDS011;14442;50.196;8.096;2022-10-16T10:19:13;6.47;;;1.20;;
15982;SDS011;14442;50.196;8.096;2022-10-16T10:21:43;2.93;;;1.40;;
15982;SDS011;14442;50.196;8.096;2022-10-16T10:24:11;4.87;;;1.63;;
15982;SDS011;14442;50.196;8.096;2022-10-16T10:26:38;5.97;;;1.60;;
15982;SDS011;14442;50.196;8.096;2022-10-16T10:29:12;5.43;;;2.07;;
15982;SDS011;14442;50.196;8.096;2022-10-16T10:31:53;2.87;;;1.10;;
15982;SDS011;14442;50.196;8.096;2022-10-16T10:34:31;5.03;;;1.50;;
15982;SDS011;14442;50.196;8.096;2022-10-16T10:37:14;4.33;;;1.47;;
15982;SDS011;14442;50.196;8.096;2022-10-16T10:39:56;3.37;;;0.93;;
15982;SDS011;14442;50.196;8.096;2022-10-16T10:42:29;8.73;;;1.73;;
15982;SDS011;14442;50.196;8.096;2022-10-16T10:45:08;4.33;;;1.73;;
15982;SDS011;14442;50.196;8.096;2022-10-16T10:47:47;4.50;;;1.63;;
15982;SDS011;14442;50.196;8.096;2022-10-16T10:50:26;3.90;;;1.40;;
15982;SDS011;14442;50.196;8.096;2022-10-16T10:53:04;2.17;;;1.30;;
15982;SDS011;14442;50.196;8.096;2022-10-16T10:55:39;3.43;;;1.60;;
15982;SDS011;14442;50.196;8.096;2022-10-16T10:58:15;5.07;;;1.60;;
15982;SDS011;14442;50.196;8.096;2022-10-16T11:00:55;5.23;;;1.33;;
15982;SDS011;14442;50.196;8.096;2022-10-16T11:03:41;6.13;;;2.17;;
15982;SDS011;14442;50.196;8.096;2022-10-16T11:06:22;2.43;;;1.43;;
15982;SDS011;14442;50.196;8.096;2022-10-16T11:08:55;5.23;;;2.13;;
15982;SDS011;14442;50.196;8.096;2022-10-16T11:11:27;3.50;;;1.50;;
15982;SDS011;14442;50.196;8.096;2022-10-16T11:13:58;3.63;;;1.67;;
15982;SDS011;14442;50.196;8.096;2022-10-16T11:16:30;5.37;;;1.67;;
15982;SDS011;14442;50.196;8.096;2022-10-16T11:19:02;5.07;;;1.30;;
15982;SDS011;14442;50.196;8.096;2022-10-16T11:21:51;5.67;;;1.90;;
15982;SDS011;14442;50.196;8.096;2022-10-16T11:24:29;3.57;;;1.70;;
15982;SDS011;14442;50.196;8.096;2022-10-16T11:27:03;5.27;;;2.00;;
15982;SDS011;14442;50.196;8.096;2022-10-16T11:29:34;4.63;;;1.60;;
15982;SDS011;14442;50.196;8.096;2022-10-16T11:32:10;4.17;;;2.10;;
15982;SDS011;14442;50.196;8.096;2022-10-16T11:34:47;6.63;;;2.00;;
15982;SDS011;14442;50.196;8.096;2022-10-16T11:37:17;4.43;;;1.73;;
15982;SDS011;14442;50.196;8.096;2022-10-16T11:39:49;5.43;;;1.90;;
15982;SDS011;14442;50.196;8.096;2022-10-16T11:42:18;4.63;;;1.53;;
15982;SDS011;14442;50.196;8.096;2022-10-16T11:44:51;7.13;;;1.53;;
15982;SDS011;14442;50.196;8.096;2022-10-16T11:47:26;5.60;;;1.60;;
15982;SDS011;14442;50.196;8.096;2022-10-16T11:49:57;3.40;;;1.93;;
15982;SDS011;14442;50.196;8.096;2022-10-16T11:52:28;6.13;;;1.90;;
15982;SDS011;14442;50.196;8.096;2022-10-16T11:55:05;3.77;;;1.70;;
15982;SDS011;14442;50.196;8.096;2022-10-16T11:57:42;5.33;;;1.67;;
15982;SDS011;14442;50.196;8.096;2022-10-16T12:00:14;4.03;;;1.50;;
15982;SDS011;14442;50.196;8.096;2022-10-16T12:02:50;5.40;;;1.63;;
15982;SDS011;14442;50.196;8.096;2022-10-16T12:05:23;6.50;;;1.70;;
15982;SDS011;14442;50.196;8.096;2022-10-16T12:08:01;6.37;;;1.73;;
15982;SDS011;14442;50.196;8.096;2022-10-16T12:10:35;7.13;;;2.17;;
15982;SDS011;14442;50.196;8.096;2022-10-16T12:13:03;6.77;;;1.60;;
15982;SDS011;14442;50.196;8.096;2022-10-16T12:15:31;7.93;;;2.23;;
15982;SDS011;14442;50.196;8.096;2022-10-16T12:18:00;13.47;;;2.07;;
15982;SDS011;14442;50.196;8.096;2022-10-16T12:20:28;7.77;;;1.83;;
15982;SDS011;14442;50.196;8.096;2022-10-16T12:22:57;10.87;;;2.00;;
15982;SDS011;14442;50.196;8.096;2022-10-16T12:25:27;6.20;;;1.80;;
15982;SDS011;14442;50.196;8.096;2022-10-16T12:27:58;6.33;;;1.40;;
15982;SDS011;14442;50.196;8.096;2022-10-16T12:30:30;4.37;;;1.43;;
15982;SDS011;14442;50.196;8.096;2022-10-16T12:32:59;6.70;;;1.63;;
15982;SDS011;14442;50.196;8.096;2022-10-16T12:35:28;6.53;;;1.70;;
15982;SDS011;14442;50.196;8.096;2022-10-16T12:38:07;6.53;;;1.90;;
15982;SDS011;14442;50.196;8.096;2022-10-16T12:40:40;7.17;;;1.20;;
15982;SDS011;14442;50.196;8.096;2022-10-16T12:43:23;6.17;;;1.87;;
15982;SDS011;14442;50.196;8.096;2022-10-16T12:46:06;5.10;;;1.60;;
15982;SDS011;14442;50.196;8.096;2022-10-16T12:49:15;4.10;;;1.60;;
15982;SDS011;14442;50.196;8.096;2022-10-16T12:51:49;4.43;;;1.67;;
15982;SDS011;14442;50.196;8.096;2022-10-16T12:54:16;5.40;;;2.30;;
15982;SDS011;14442;50.196;8.096;2022-10-16T12:56:50;5.90;;;1.17;;
15982;SDS011;14442;50.196;8.096;2022-10-16T12:59:33;3.30;;;1.57;;
15982;SDS011;14442;50.196;8.096;2022-10-16T13:02:17;5.37;;;1.83;;
15982;SDS011;14442;50.196;8.096;2022-10-16T13:05:10;5.07;;;1.53;;
15982;SDS011;14442;50.196;8.096;2022-10-16T13:07:53;3.80;;;1.37;;
15982;SDS011;14442;50.196;8.096;2022-10-16T13:10:26;4.83;;;1.20;;
15982;SDS011;14442;50.196;8.096;2022-10-16T13:16:10;3.37;;;1.10;;
15982;SDS011;14442;50.196;8.096;2022-10-16T13:18:48;6.10;;;1.20;;
15982;SDS011;14442;50.196;8.096;2022-10-16T13:21:31;3.87;;;1.37;;
15982;SDS011;14442;50.196;8.096;2022-10-16T13:24:06;6.60;;;1.40;;
15982;SDS011;14442;50.196;8.096;2022-10-16T13:26:43;2.53;;;1.17;;
15982;SDS011;14442;50.196;8.096;2022-10-16T13:29:14;6.47;;;1.50;;
15982;SDS011;14442;50.196;8.096;2022-10-16T13:31:43;4.47;;;1.13;;
15982;SDS011;14442;50.196;8.096;2022-10-16T13:34:12;3.40;;;1.13;;
15982;SDS011;14442;50.196;8.096;2022-10-16T13:36:43;2.47;;;1.10;;
15982;SDS011;14442;50.196;8.096;2022-10-16T13:39:12;4.17;;;1.30;;
15982;SDS011;14442;50.196;8.096;2022-10-16T13:41:41;4.90;;;0.60;;
15982;SDS011;14442;50.196;8.096;2022-10-16T13:44:13;6.97;;;1.40;;
15982;SDS011;14442;50.196;8.096;2022-10-16T13:46:41;7.43;;;1.27;;
15982;SDS011;14442;50.196;8.096;2022-10-16T13:49:14;3.17;;;1.13;;
15982;SDS011;14442;50.196;8.096;2022-10-16T13:51:41;4.17;;;1.20;;
15982;SDS011;14442;50.196;8.096;2022-10-16T13:54:19;7.53;;;1.33;;
15982;SDS011;14442;50.196;8.096;2022-10-16T13:56:46;5.77;;;0.93;;
15982;SDS011;14442;50.196;8.096;2022-10-16T13:59:22;6.00;;;1.20;;
15982;SDS011;14442;50.196;8.096;2022-10-16T14:01:52;2.80;;;0.90;;
15982;SDS011;14442;50.196;8.096;2022-10-16T14:04:21;5.83;;;1.17;;
15982;SDS011;14442;50.196;8.096;2022-10-16T14:06:50;3.67;;;1.00;;
15982;SDS011;14442;50.196;8.096;2022-10-16T14:09:20;3.90;;;1.00;;
15982;SDS011;14442;50.196;8.096;2022-10-16T14:11:49;4.00;;;1.03;;
15982;SDS011;14442;50.196;8.096;2022-10-16T14:14:17;4.23;;;1.30;;
15982;SDS011;14442;50.196;8.096;2022-10-16T14:16:44;5.43;;;1.50;;
15982;SDS011;14442;50.196;8.096;2022-10-16T14:19:14;4.07;;;1.10;;
15982;SDS011;14442;50.196;8.096;2022-10-16T14:21:46;2.97;;;0.97;;
15982;SDS011;14442;50.196;8.096;2022-10-16T14:24:13;3.83;;;0.90;;
15982;SDS011;14442;50.196;8.096;2022-10-16T14:26:51;4.70;;;0.80;;
15982;SDS011;14442;50.196;8.096;2022-10-16T14:29:20;3.07;;;0.80;;
15982;SDS011;14442;50.196;8.096;2022-10-16T14:31:53;1.70;;;1.10;;
15982;SDS011;14442;50.196;8.096;2022-10-16T14:34:26;3.17;;;0.90;;
15982;SDS011;14442;50.196;8.096;2022-10-16T14:36:55;2.83;;;1.00;;
15982;SDS011;14442;50.196;8.096;2022-10-16T14:39:24;3.27;;;0.83;;
15982;SDS011;14442;50.196;8.096;2022-10-16T14:41:52;3.10;;;0.90;;
15982;SDS011;14442;50.196;8.096;2022-10-16T14:44:23;2.20;;;0.80;;
15982;SDS011;14442;50.196;8.096;2022-10-16T14:46:54;1.77;;;0.70;;
15982;SDS011;14442;50.196;8.096;2022-10-16T14:49:21;3.23;;;0.83;;
15982;SDS011;14442;50.196;8.096;2022-10-16T14:51:50;1.83;;;0.70;;
15982;SDS011;14442;50.196;8.096;2022-10-16T14:54:17;3.63;;;0.70;;
15982;SDS011;14442;50.196;8.096;2022-10-16T14:56:46;0.90;;;0.70;;
15982;SDS011;14442;50.196;8.096;2022-10-16T14:59:15;0.47;;;0.47;;
15982;SDS011;14442;50.196;8.096;2022-10-16T15:01:45;1.87;;;0.83;;
15982;SDS011;14442;50.196;8.096;2022-10-16T15:04:12;1.87;;;0.67;;
15982;SDS011;14442;50.196;8.096;2022-10-16T15:06:40;1.83;;;0.63;;
15982;SDS011;14442;50.196;8.096;2022-10-16T15:09:08;4.33;;;0.60;;
15982;SDS011;14442;50.196;8.096;2022-10-16T15:11:35;0.70;;;0.50;;
15982;SDS011;14442;50.196;8.096;2022-10-16T15:14:02;1.30;;;0.80;;